createdAt,value
2019-05-03T00:02:18.216Z,9.30
2019-05-03T00:04:48.822Z,9.20
2019-05-03T00:07:17.810Z,9.20
2019-05-03T00:09:47.029Z,9.20
2019-05-03T00:12:16.010Z,9.20
2019-05-03T00:14:46.702Z,9.20
2019-05-03T00:17:15.721Z,9.20
2019-05-03T00:19:44.662Z,9.20
2019-05-03T00:22:13.646Z,9.10
2019-05-03T00:24:42.787Z,9.10
2019-05-03T00:27:12.529Z,9.00
2019-05-03T00:29:41.906Z,9.00
2019-05-03T00:32:12.466Z,9.00
2019-05-03T00:34:46.550Z,8.90
2019-05-03T00:37:23.077Z,8.90
2019-05-03T00:40:05.028Z,8.80
2019-05-03T00:42:34.064Z,8.80
2019-05-03T00:45:04.006Z,8.70
2019-05-03T00:47:32.983Z,8.70
2019-05-03T00:50:02.844Z,8.70
2019-05-03T00:52:32.062Z,8.70
2019-05-03T00:55:02.293Z,8.70
2019-05-03T00:57:32.312Z,8.70
2019-05-03T01:00:02.262Z,8.70
2019-05-03T01:02:31.996Z,8.70
2019-05-03T01:05:02.817Z,8.70
2019-05-03T01:07:31.981Z,8.60
2019-05-03T01:10:02.753Z,8.70
2019-05-03T01:12:32.501Z,8.70
2019-05-03T01:15:03.207Z,8.70
2019-05-03T01:17:32.810Z,8.70
2019-05-03T01:20:02.795Z,8.70
2019-05-03T01:22:32.303Z,8.60
2019-05-03T01:25:02.918Z,8.60
2019-05-03T01:27:32.742Z,8.70
2019-05-03T01:30:02.945Z,8.70
2019-05-03T01:32:32.912Z,8.80
2019-05-03T01:35:03.238Z,8.80
2019-05-03T01:37:32.479Z,8.80
2019-05-03T01:40:02.217Z,8.80
2019-05-03T01:42:32.145Z,8.80
2019-05-03T01:45:01.884Z,8.80
2019-05-03T01:47:35.656Z,8.80
2019-05-03T01:50:06.453Z,8.80
2019-05-03T01:52:37.023Z,8.70
2019-05-03T01:55:06.514Z,8.60
2019-05-03T01:57:35.492Z,8.60
2019-05-03T02:00:08.757Z,8.50
2019-05-03T02:02:45.332Z,8.50
2019-05-03T02:05:18.466Z,8.50
2019-05-03T02:07:48.654Z,8.50
2019-05-03T02:10:17.693Z,8.50
2019-05-03T02:12:46.610Z,8.50
2019-05-03T02:15:15.886Z,8.50
2019-05-03T02:17:44.835Z,8.60
2019-05-03T02:20:13.829Z,8.60
2019-05-03T02:22:42.932Z,8.60
2019-05-03T02:25:12.616Z,8.50
2019-05-03T02:27:42.238Z,8.50
2019-05-03T02:30:14.154Z,8.60
2019-05-03T02:32:43.851Z,8.60
2019-05-03T02:35:14.000Z,8.50
2019-05-03T02:37:45.101Z,8.40
2019-05-03T02:40:14.273Z,8.30
2019-05-03T02:42:46.438Z,8.30
2019-05-03T02:45:26.204Z,8.20
2019-05-03T02:47:56.765Z,8.30
2019-05-03T02:50:26.168Z,8.20
2019-05-03T02:52:55.408Z,8.20
2019-05-03T02:55:26.109Z,8.20
2019-05-03T02:57:56.389Z,8.20
2019-05-03T03:00:36.103Z,8.20
2019-05-03T03:03:05.641Z,8.10
2019-05-03T03:05:35.295Z,8.00
2019-05-03T03:08:05.966Z,8.00
2019-05-03T03:10:35.816Z,8.00
2019-05-03T03:13:06.870Z,8.10
2019-05-03T03:15:38.979Z,8.10
2019-05-03T03:18:09.570Z,8.00
2019-05-03T03:20:39.879Z,8.00
2019-05-03T03:23:14.547Z,8.00
2019-05-03T03:25:46.211Z,8.00
2019-05-03T03:28:18.411Z,8.00
2019-05-03T03:31:08.442Z,8.00
2019-05-03T03:33:40.126Z,8.00
2019-05-03T03:36:43.237Z,8.10
2019-05-03T03:38:39.526Z,8.00
2019-05-03T03:41:08.854Z,8.00
2019-05-03T03:43:39.002Z,8.00
2019-05-03T03:46:09.603Z,8.10
2019-05-03T03:48:40.460Z,8.10
2019-05-03T03:51:11.943Z,8.10
2019-05-03T03:53:46.510Z,8.10
2019-05-03T03:56:16.798Z,8.10
2019-05-03T03:58:46.506Z,8.10
2019-05-03T04:01:15.835Z,8.10
2019-05-03T04:03:45.975Z,8.10
2019-05-03T04:06:16.811Z,8.10
2019-05-03T04:08:45.938Z,8.10
2019-05-03T04:11:15.559Z,8.10
2019-05-03T04:13:46.177Z,8.10
2019-05-03T04:16:26.060Z,8.10
2019-05-03T04:19:12.958Z,8.10
2019-05-03T04:21:42.111Z,8.10
2019-05-03T04:24:11.215Z,8.10
2019-05-03T04:26:40.572Z,8.10
2019-05-03T04:29:10.006Z,8.10
2019-05-03T04:31:38.922Z,8.00
2019-05-03T04:34:07.863Z,7.90
2019-05-03T04:36:36.782Z,7.90
2019-05-03T04:39:07.361Z,7.90
2019-05-03T04:41:36.289Z,7.90
2019-05-03T04:44:06.329Z,7.90
2019-05-03T04:46:35.961Z,7.90
2019-05-03T04:49:05.724Z,7.90
2019-05-03T04:51:37.775Z,7.90
2019-05-03T04:54:08.358Z,8.00
2019-05-03T04:56:37.377Z,8.00
2019-05-03T04:59:06.334Z,8.00
2019-05-03T05:01:35.362Z,8.10
2019-05-03T05:04:05.347Z,8.00
2019-05-03T05:06:35.044Z,7.90
2019-05-03T05:09:06.066Z,7.90
2019-05-03T05:11:35.119Z,7.90
2019-05-03T05:14:06.370Z,7.90
2019-05-03T05:16:35.680Z,8.00
2019-05-03T05:19:25.393Z,7.90
2019-05-03T05:21:56.174Z,7.90
2019-05-03T05:24:25.600Z,8.00
2019-05-03T05:26:56.318Z,8.10
2019-05-03T05:29:29.934Z,8.20
2019-05-03T05:31:58.921Z,8.20
2019-05-03T05:34:27.874Z,8.20
2019-05-03T05:36:56.850Z,8.20
2019-05-03T05:39:25.793Z,8.20
2019-05-03T05:41:55.439Z,8.20
2019-05-03T05:44:24.846Z,8.30
2019-05-03T05:46:58.307Z,8.40
2019-05-03T05:49:47.082Z,8.60
2019-05-03T05:52:16.005Z,8.70
2019-05-03T05:57:36.218Z,8.80
2019-05-03T06:00:11.764Z,8.90
2019-05-03T06:02:40.681Z,9.00
2019-05-03T06:05:09.942Z,9.00
2019-05-03T06:07:44.317Z,9.10
2019-05-03T06:10:24.867Z,9.20
2019-05-03T06:13:01.675Z,9.30
2019-05-03T06:15:50.326Z,9.40
2019-05-03T06:18:20.954Z,9.50
2019-05-03T06:21:08.065Z,9.50
2019-05-03T06:23:38.615Z,9.40
2019-05-03T06:26:25.663Z,9.20
2019-05-03T06:28:54.588Z,9.20
2019-05-03T06:31:25.317Z,9.00
2019-05-03T06:33:55.351Z,8.90
2019-05-03T06:36:24.460Z,8.90
2019-05-03T06:38:54.741Z,8.90
2019-05-03T06:41:25.069Z,9.10
2019-05-03T06:43:55.213Z,9.20
2019-05-03T06:46:45.647Z,9.20
2019-05-03T06:49:15.454Z,9.30
2019-05-03T06:51:49.491Z,9.30
2019-05-03T06:54:15.938Z,9.30
2019-05-03T06:56:45.356Z,9.20
2019-05-03T06:59:19.090Z,9.20
2019-05-03T07:01:49.642Z,9.50
2019-05-03T07:04:20.226Z,9.70
2019-05-03T07:07:07.464Z,9.70
2019-05-03T07:09:38.027Z,9.60
2019-05-03T07:12:07.074Z,9.60
2019-05-03T07:14:36.024Z,9.20
2019-05-03T07:17:05.684Z,9.00
2019-05-03T07:19:35.406Z,9.10
2019-05-03T07:22:05.128Z,8.90
2019-05-03T07:24:38.769Z,8.90
2019-05-03T07:27:05.517Z,9.00
2019-05-03T07:29:36.501Z,9.20
2019-05-03T07:32:05.292Z,9.40
2019-05-03T07:34:35.063Z,9.70
2019-05-03T07:37:05.894Z,9.90
2019-05-03T07:39:35.102Z,9.90
2019-05-03T07:42:05.440Z,10.20
2019-05-03T07:44:34.933Z,10.40
2019-05-03T07:47:04.729Z,10.60
2019-05-03T07:49:35.680Z,10.70
2019-05-03T07:52:05.894Z,10.70
2019-05-03T07:54:35.103Z,10.80
2019-05-03T07:57:05.667Z,10.90
2019-05-03T07:59:35.584Z,10.90
2019-05-03T08:02:05.610Z,11.00
2019-05-03T08:04:35.832Z,10.90
2019-05-03T08:07:05.065Z,10.80
2019-05-03T08:09:35.073Z,10.70
2019-05-03T08:12:05.073Z,10.60
2019-05-03T08:14:35.727Z,10.30
2019-05-03T08:17:05.201Z,10.20
2019-05-03T08:19:35.781Z,9.80
2019-05-03T08:22:05.301Z,9.70
2019-05-03T08:24:34.722Z,9.70
2019-05-03T08:27:05.111Z,9.80
2019-05-03T08:29:35.223Z,10.10
2019-05-03T08:32:09.070Z,10.50
2019-05-03T08:34:39.674Z,10.70
2019-05-03T08:37:10.232Z,10.70
2019-05-03T08:39:39.183Z,10.50
2019-05-03T08:42:09.822Z,10.50
2019-05-03T08:44:38.827Z,10.50
2019-05-03T08:47:07.790Z,10.40
2019-05-03T08:49:36.781Z,10.50
2019-05-03T08:52:05.791Z,10.50
2019-05-03T08:54:34.972Z,10.50
2019-05-03T08:57:06.239Z,10.90
2019-05-03T08:59:35.751Z,11.30
2019-05-03T09:02:13.985Z,11.30
2019-05-03T09:04:38.623Z,11.10
2019-05-03T09:07:07.383Z,11.10
2019-05-03T09:09:37.938Z,11.00
2019-05-03T09:12:27.934Z,10.90
2019-05-03T09:14:57.038Z,11.10
2019-05-03T09:17:25.998Z,11.30
2019-05-03T09:19:55.048Z,11.50
2019-05-03T09:22:25.531Z,11.30
2019-05-03T09:24:54.732Z,11.10
2019-05-03T09:27:24.748Z,10.90
2019-05-03T09:29:55.634Z,10.80
2019-05-03T09:32:25.681Z,11.00
2019-05-03T09:34:55.149Z,11.00
2019-05-03T09:37:25.013Z,11.20
2019-05-03T09:39:55.238Z,11.50
2019-05-03T09:42:24.825Z,11.60
2019-05-03T09:44:55.623Z,11.50
2019-05-03T09:47:25.237Z,11.60
2019-05-03T09:49:55.873Z,11.60
2019-05-03T09:52:25.237Z,11.60
2019-05-03T09:54:58.964Z,11.60
2019-05-03T09:57:27.927Z,11.70
2019-05-03T09:59:59.922Z,11.60
2019-05-03T10:02:27.967Z,11.60
2019-05-03T10:04:56.912Z,11.60
2019-05-03T10:07:25.990Z,11.50
2019-05-03T10:09:55.338Z,11.30
2019-05-03T10:12:25.625Z,11.10
2019-05-03T10:14:55.005Z,10.90
2019-05-03T10:17:35.269Z,10.80
2019-05-03T10:20:08.009Z,11.00
2019-05-03T10:22:37.536Z,10.90
2019-05-03T10:25:07.558Z,10.90
2019-05-03T10:27:46.066Z,11.30
2019-05-03T10:30:20.095Z,11.80
2019-05-03T10:32:50.754Z,12.10
2019-05-03T10:35:19.682Z,12.30
2019-05-03T10:37:48.651Z,12.40
2019-05-03T10:40:25.639Z,11.80
2019-05-03T10:42:55.417Z,11.40
2019-05-03T10:45:27.862Z,11.20
2019-05-03T10:47:55.094Z,10.90
2019-05-03T10:50:25.254Z,10.90
2019-05-03T10:53:01.999Z,10.80
2019-05-03T10:55:30.943Z,11.00
2019-05-03T10:58:16.566Z,11.30
2019-05-03T11:00:52.750Z,11.70
2019-05-03T11:03:18.039Z,12.00
2019-05-03T11:05:47.065Z,12.30
2019-05-03T11:08:15.975Z,12.40
2019-05-03T11:10:44.941Z,12.30
2019-05-03T11:13:15.464Z,12.00
2019-05-03T11:15:44.581Z,11.80
2019-05-03T11:18:14.737Z,11.70
2019-05-03T11:20:45.261Z,11.70
2019-05-03T11:23:14.716Z,11.50
2019-05-03T11:25:45.266Z,11.70
2019-05-03T11:28:16.073Z,11.80
2019-05-03T11:30:53.097Z,11.90
2019-05-03T11:33:20.457Z,11.90
2019-05-03T11:35:51.059Z,11.90
2019-05-03T11:38:27.475Z,12.00
2019-05-03T11:40:56.445Z,12.00
2019-05-03T11:43:25.439Z,11.70
2019-05-03T11:45:55.459Z,11.60
2019-05-03T11:48:25.265Z,11.70
2019-05-03T11:50:54.682Z,11.60
2019-05-03T11:53:25.225Z,11.60
2019-05-03T11:55:55.136Z,11.80
2019-05-03T11:58:27.037Z,12.00
2019-05-03T12:01:11.936Z,12.20
2019-05-03T12:03:41.388Z,12.30
2019-05-03T12:06:10.415Z,12.30
2019-05-03T12:08:39.416Z,12.10
2019-05-03T12:11:08.462Z,11.70
2019-05-03T12:13:37.460Z,11.60
2019-05-03T12:16:17.497Z,11.50
2019-05-03T12:18:48.862Z,11.50
2019-05-03T12:21:09.753Z,11.60
2019-05-03T12:23:39.186Z,11.70
2019-05-03T12:26:13.077Z,11.80
2019-05-03T12:28:39.547Z,11.70
2019-05-03T12:31:08.468Z,11.70
2019-05-03T12:33:38.330Z,11.80
2019-05-03T12:36:07.623Z,12.00
2019-05-03T12:38:36.612Z,11.90
2019-05-03T12:41:05.847Z,11.90
2019-05-03T12:43:35.051Z,12.00
2019-05-03T12:46:05.123Z,11.90
2019-05-03T12:48:35.539Z,11.70
2019-05-03T12:51:06.880Z,11.70
2019-05-03T12:53:36.361Z,11.40
2019-05-03T12:56:11.217Z,11.40
2019-05-03T12:58:45.528Z,11.60
2019-05-03T13:01:40.242Z,12.10
2019-05-03T13:04:02.817Z,12.60
2019-05-03T13:06:34.653Z,12.80
2019-05-03T13:09:05.560Z,12.90
2019-05-03T13:11:36.573Z,12.70
2019-05-03T13:14:05.731Z,12.60
2019-05-03T13:16:35.333Z,12.50
2019-05-03T13:19:05.623Z,12.20
2019-05-03T13:21:35.519Z,12.20
2019-05-03T13:24:05.461Z,12.30
2019-05-03T13:26:35.146Z,12.40
2019-05-03T13:29:05.906Z,12.40
2019-05-03T13:31:34.980Z,12.40
2019-05-03T13:34:05.600Z,12.20
2019-05-03T13:36:35.473Z,12.00
2019-05-03T13:39:14.080Z,11.60
2019-05-03T13:41:37.528Z,11.50
2019-05-03T13:44:06.525Z,11.80
2019-05-03T13:46:35.462Z,12.20
2019-05-03T13:49:05.690Z,12.60
2019-05-03T13:51:35.916Z,12.80
2019-05-03T13:54:05.499Z,12.90
2019-05-03T13:56:35.355Z,13.00
2019-05-03T13:59:12.551Z,13.30
2019-05-03T14:01:35.445Z,13.20
2019-05-03T14:04:05.290Z,12.90
2019-05-03T14:06:36.512Z,12.70
2019-05-03T14:09:06.736Z,12.80
2019-05-03T14:11:35.681Z,12.80
2019-05-03T14:14:04.850Z,12.60
2019-05-03T14:16:33.808Z,12.40
2019-05-03T14:19:05.287Z,12.40
2019-05-03T14:21:38.993Z,12.60
2019-05-03T14:24:12.067Z,12.60
2019-05-03T14:26:41.937Z,12.70
2019-05-03T14:29:10.938Z,12.70
2019-05-03T14:31:39.972Z,12.80
2019-05-03T14:34:09.067Z,12.80
2019-05-03T14:36:38.115Z,12.50
2019-05-03T14:39:09.875Z,12.40
2019-05-03T14:41:39.134Z,12.30
2019-05-03T14:44:08.059Z,12.30
2019-05-03T14:46:37.047Z,12.50
2019-05-03T14:49:06.131Z,12.70
2019-05-03T14:51:35.176Z,12.70
2019-05-03T14:54:05.545Z,12.50
2019-05-03T14:56:41.985Z,12.60
2019-05-03T14:59:27.602Z,12.70
2019-05-03T15:02:15.413Z,12.70
2019-05-03T15:04:43.643Z,12.60
2019-05-03T15:07:12.591Z,12.60
2019-05-03T15:09:41.509Z,12.60
2019-05-03T15:12:10.643Z,12.40
2019-05-03T15:14:39.561Z,12.30
2019-05-03T15:17:08.602Z,12.20
2019-05-03T15:19:37.527Z,12.30
2019-05-03T15:22:06.681Z,12.30
2019-05-03T15:24:35.676Z,12.10
2019-05-03T15:27:05.061Z,12.00
2019-05-03T15:29:35.465Z,12.10
2019-05-03T15:32:05.162Z,12.20
2019-05-03T15:34:35.447Z,12.10
2019-05-03T15:37:05.481Z,12.20
2019-05-03T15:39:35.143Z,12.10
2019-05-03T15:42:05.307Z,11.90
2019-05-03T15:44:50.957Z,11.70
2019-05-03T15:47:36.610Z,11.50
2019-05-03T15:50:07.001Z,11.40
2019-05-03T15:52:35.927Z,11.40
2019-05-03T15:55:07.246Z,11.30
2019-05-03T15:57:36.192Z,11.40
2019-05-03T16:00:08.210Z,11.60
2019-05-03T16:02:37.146Z,11.50
2019-05-03T16:05:06.946Z,11.20
2019-05-03T16:07:35.878Z,11.00
2019-05-03T16:10:06.082Z,10.90
2019-05-03T16:12:35.091Z,10.80
2019-05-03T16:15:05.481Z,10.80
2019-05-03T16:17:35.431Z,10.90
2019-05-03T16:20:07.166Z,11.00
2019-05-03T16:22:36.114Z,11.10
2019-05-03T16:25:06.874Z,11.10
2019-05-03T16:27:37.456Z,11.10
2019-05-03T16:30:09.198Z,11.30
2019-05-03T16:32:38.138Z,11.40
2019-05-03T16:35:07.197Z,11.40
2019-05-03T16:37:36.129Z,11.50
2019-05-03T16:40:06.428Z,11.50
2019-05-03T16:42:35.448Z,11.60
2019-05-03T16:45:05.678Z,11.60
2019-05-03T16:47:35.432Z,11.50
2019-05-03T16:50:07.291Z,11.50
2019-05-03T16:52:36.362Z,11.50
2019-05-03T16:55:06.451Z,11.40
2019-05-03T16:57:35.462Z,11.30
2019-05-03T17:00:06.875Z,11.30
2019-05-03T17:02:35.889Z,11.20
2019-05-03T17:05:16.775Z,11.10
2019-05-03T17:07:47.356Z,11.10
2019-05-03T17:10:25.514Z,11.00
2019-05-03T17:12:56.876Z,10.80
2019-05-03T17:15:25.254Z,10.80
2019-05-03T17:17:54.266Z,10.80
2019-05-03T17:20:25.328Z,10.90
2019-05-03T17:22:55.529Z,10.90
2019-05-03T17:25:24.621Z,10.90
2019-05-03T17:27:54.308Z,10.90
2019-05-03T17:30:32.619Z,10.90
2019-05-03T17:32:55.110Z,10.80
2019-05-03T17:35:25.169Z,10.80
2019-05-03T17:37:54.672Z,10.80
2019-05-03T17:40:25.398Z,10.80
2019-05-03T17:43:02.011Z,10.80
2019-05-03T17:45:37.913Z,10.80
2019-05-03T17:48:06.458Z,10.80
2019-05-03T17:50:35.447Z,10.60
2019-05-03T17:53:25.361Z,10.60
2019-05-03T17:56:01.915Z,10.50
2019-05-03T17:58:47.715Z,10.50
2019-05-03T18:01:35.210Z,10.40
2019-05-03T18:04:12.108Z,10.40
2019-05-03T18:06:59.039Z,10.40
2019-05-03T18:09:29.718Z,10.50
2019-05-03T18:12:00.325Z,10.40
2019-05-03T18:14:29.256Z,10.40
2019-05-03T18:16:58.250Z,10.30
2019-05-03T18:19:27.186Z,10.30
2019-05-03T18:21:56.210Z,10.30
2019-05-03T18:24:25.158Z,10.20
2019-05-03T18:26:54.466Z,10.20
2019-05-03T18:29:25.142Z,10.20
2019-05-03T18:31:55.022Z,10.20
2019-05-03T18:34:24.909Z,10.20
2019-05-03T18:36:54.106Z,10.20
2019-05-03T18:39:25.105Z,10.20
2019-05-03T18:41:54.414Z,10.20
2019-05-03T18:44:25.118Z,10.20
2019-05-03T18:46:55.689Z,10.10
2019-05-03T18:49:24.903Z,10.10
2019-05-03T18:51:55.390Z,10.10
2019-05-03T18:54:24.757Z,10.00
2019-05-03T18:56:55.590Z,10.00
2019-05-03T18:59:24.489Z,10.00
2019-05-03T19:01:55.201Z,10.00
2019-05-03T19:04:34.722Z,10.00
2019-05-03T19:07:04.304Z,10.00
2019-05-03T19:09:29.344Z,10.00
2019-05-03T19:12:05.790Z,9.90
2019-05-03T19:14:34.825Z,9.90
2019-05-03T19:17:20.602Z,9.90
2019-05-03T19:19:55.157Z,9.80
2019-05-03T19:22:25.000Z,9.80
2019-05-03T19:24:54.217Z,9.80
2019-05-03T19:27:24.987Z,9.70
2019-05-03T19:29:55.485Z,9.70
2019-05-03T19:32:25.537Z,9.80
2019-05-03T19:34:55.460Z,9.80
2019-05-03T19:37:25.138Z,9.70
2019-05-03T19:39:55.226Z,9.80
2019-05-03T19:42:27.080Z,9.80
2019-05-03T19:44:55.398Z,9.70
2019-05-03T19:47:25.177Z,9.60
2019-05-03T19:49:54.807Z,9.60
2019-05-03T19:52:25.630Z,9.60
2019-05-03T19:54:55.456Z,9.50
2019-05-03T19:57:26.267Z,9.60
2019-05-03T19:59:56.823Z,9.60
2019-05-03T20:02:45.586Z,9.60
2019-05-03T20:05:22.609Z,9.60
2019-05-03T20:08:05.583Z,9.50
2019-05-03T20:10:35.278Z,9.40
2019-05-03T20:13:04.706Z,9.30
2019-05-03T20:15:33.849Z,9.20
2019-05-03T20:18:04.786Z,9.20
2019-05-03T20:20:33.527Z,9.20
2019-05-03T20:23:02.480Z,9.20
2019-05-03T20:25:31.410Z,9.10
2019-05-03T20:28:00.345Z,9.10
2019-05-03T20:30:29.282Z,9.10
2019-05-03T20:32:58.237Z,9.10
2019-05-03T20:35:27.152Z,9.10
2019-05-03T20:37:56.106Z,9.10
2019-05-03T20:40:25.565Z,9.00
2019-05-03T20:43:01.915Z,9.00
2019-05-03T20:45:35.517Z,9.10
2019-05-03T20:48:06.455Z,9.10
2019-05-03T20:50:35.385Z,9.00
2019-05-03T20:53:05.341Z,9.00
2019-05-03T20:55:34.810Z,8.90
2019-05-03T20:58:06.481Z,8.90
2019-05-03T21:00:34.643Z,8.80
2019-05-03T21:03:04.913Z,8.80
2019-05-03T21:05:35.378Z,8.70
2019-05-03T21:08:05.552Z,8.70
2019-05-03T21:10:34.685Z,8.60
2019-05-03T21:13:05.443Z,8.50
2019-05-03T21:15:52.837Z,8.50
2019-05-03T21:18:39.899Z,8.50
2019-05-03T21:21:16.178Z,8.50
2019-05-03T21:23:52.847Z,8.40
2019-05-03T21:26:21.760Z,8.50
2019-05-03T21:28:50.722Z,8.50
2019-05-03T21:31:19.713Z,8.50
2019-05-03T21:33:48.662Z,8.50
2019-05-03T21:36:17.596Z,8.50
2019-05-03T21:38:46.522Z,8.40
2019-05-03T21:41:15.749Z,8.40
2019-05-03T21:46:30.295Z,8.40
2019-05-03T21:49:09.902Z,8.30
2019-05-03T21:51:38.833Z,8.20
2019-05-03T21:54:07.734Z,8.20
2019-05-03T21:56:36.696Z,8.10
2019-05-03T21:59:05.779Z,8.00
2019-05-03T22:01:37.457Z,7.90
2019-05-03T22:04:06.584Z,7.80
2019-05-03T22:06:35.530Z,7.80
2019-05-03T22:09:05.650Z,7.80
2019-05-03T22:11:34.678Z,7.80
2019-05-03T22:14:05.569Z,7.80
2019-05-03T22:16:41.661Z,7.90
2019-05-03T22:19:10.586Z,7.90
2019-05-03T22:21:57.372Z,8.00
2019-05-03T22:24:30.898Z,8.00
2019-05-03T22:27:01.702Z,7.90
2019-05-03T22:29:30.618Z,7.90
2019-05-03T22:34:36.777Z,7.80
2019-05-03T22:37:05.985Z,7.80
2019-05-03T22:39:35.062Z,7.80
2019-05-03T22:42:04.619Z,7.60
2019-05-03T22:44:35.561Z,7.70
2019-05-03T22:47:05.493Z,7.70
2019-05-03T22:49:37.170Z,7.60
2019-05-03T22:52:05.410Z,7.60
2019-05-03T22:54:34.642Z,7.50
2019-05-03T22:57:04.867Z,7.50
2019-05-03T22:59:34.465Z,7.40
2019-05-03T23:02:03.726Z,7.20
2019-05-03T23:04:32.642Z,7.20
2019-05-03T23:07:01.644Z,7.10
2019-05-03T23:09:30.613Z,7.20
2019-05-03T23:11:59.573Z,7.20
2019-05-03T23:14:28.483Z,7.10
2019-05-03T23:16:57.429Z,7.00
2019-05-03T23:19:26.342Z,6.80
2019-05-03T23:22:05.521Z,6.70
2019-05-03T23:24:35.210Z,6.50
2019-05-03T23:27:05.058Z,6.50
2019-05-03T23:29:34.964Z,6.50
2019-05-03T23:32:04.814Z,6.50
2019-05-03T23:34:35.107Z,6.40
2019-05-03T23:37:05.488Z,6.30
2019-05-03T23:39:34.722Z,6.00
2019-05-03T23:42:05.062Z,6.00
2019-05-03T23:44:35.069Z,6.00
2019-05-03T23:47:06.030Z,6.00
2019-05-03T23:49:35.350Z,6.10
2019-05-03T23:52:09.273Z,6.10
2019-05-03T23:54:38.238Z,6.20
2019-05-03T23:57:07.164Z,6.30
2019-05-03T23:59:36.104Z,6.30
